Time;durP1;ratioP1;P1;durP2;ratioP2;P2;SDS_P1;SDS_P2;PMS_P1;PMS_P2;Temp;Humidity;BMP_temperature;BMP_pressure;BME280_temperature;BME280_humidity;BME280_pressure;Samples;Min_cycle;Max_cycle;Signal;HPM_P1;HPM_P2
2021/04/06 00:01:41;;;;;;;8.30;2.40;;;;;;;;;;6140304;28;20047;-73
2021/04/06 00:04:46;;;;;;;5.65;2.40;;;;;;;;;;6139045;28;20565;-75
2021/04/06 00:07:49;;;;;;;6.63;2.65;;;;;;;;;;6140167;28;20066;-72
2021/04/06 00:10:54;;;;;;;3.88;2.22;;;;;;;;;;6142594;28;20051;-72
2021/04/06 00:13:56;;;;;;;6.43;2.47;;;;;;;;;;6116540;29;20142;-72
2021/04/06 00:16:58;;;;;;;6.40;2.80;;;;;;;;;;6123660;29;20044;-73
2021/04/06 00:20:00;;;;;;;6.47;2.92;;;;;;;;;;6135637;29;20051;-73
2021/04/06 00:23:03;;;;;;;8.50;3.38;;;;;;;;;;6136394;28;20071;-72
2021/04/06 00:26:05;;;;;;;5.15;3.03;;;;;;;;;;6117551;29;20043;-72
2021/04/06 00:29:06;;;;;;;5.45;3.03;;;;;;;;;;6127996;29;20069;-74
2021/04/06 00:32:08;;;;;;;6.15;2.72;;;;;;;;;;6134569;28;20055;-72
2021/04/06 00:35:11;;;;;;;5.57;2.95;;;;;;;;;;6119605;29;20167;-74
2021/04/06 00:38:14;;;;;;;4.72;2.80;;;;;;;;;;6147529;28;20146;-72
2021/04/06 00:41:16;;;;;;;5.32;2.70;;;;;;;;;;6126582;28;20095;-72
2021/04/06 00:44:17;;;;;;;5.50;2.88;;;;;;;;;;6126431;29;20199;-72
2021/04/06 00:47:25;;;;;;;4.93;2.58;;;;;;;;;;6124146;29;20150;-72
2021/04/06 00:50:31;;;;;;;3.70;2.58;;;;;;;;;;6117741;29;20146;-74
2021/04/06 00:53:54;;;;;;;5.55;2.47;;;;;;;;;;6116892;29;20060;-71
2021/04/06 00:56:59;;;;;;;5.45;2.78;;;;;;;;;;6138374;28;20063;-75
2021/04/06 01:00:22;;;;;;;5.25;2.60;;;;;;;;;;6136913;29;20690;-72
2021/04/06 01:03:24;;;;;;;4.93;2.47;;;;;;;;;;6118047;23;20135;-73
2021/04/06 01:06:26;;;;;;;5.70;2.70;;;;;;;;;;6106699;29;20100;-73
2021/04/06 01:09:40;;;;;;;4.35;2.60;;;;;;;;;;6106320;29;20444;-72
2021/04/06 01:12:44;;;;;;;4.65;2.67;;;;;;;;;;6107037;29;20048;-73
2021/04/06 01:15:45;;;;;;;6.68;2.80;;;;;;;;;;6106302;29;20052;-73
2021/04/06 01:18:46;;;;;;;6.60;2.92;;;;;;;;;;6099969;29;20071;-73
2021/04/06 01:21:48;;;;;;;4.05;2.70;;;;;;;;;;6099585;29;20147;-73
2021/04/06 01:24:50;;;;;;;6.20;3.17;;;;;;;;;;6102160;29;20099;-72
2021/04/06 01:27:57;;;;;;;5.68;3.20;;;;;;;;;;6099496;29;20076;-73
2021/04/06 01:31:00;;;;;;;5.57;3.00;;;;;;;;;;6092462;29;20507;-73
2021/04/06 01:34:03;;;;;;;6.87;3.73;;;;;;;;;;6093165;29;20138;-72
2021/04/06 01:37:04;;;;;;;6.95;2.97;;;;;;;;;;6100687;29;20483;-72
2021/04/06 01:40:08;;;;;;;5.60;2.97;;;;;;;;;;6096630;29;20076;-73
2021/04/06 01:43:10;;;;;;;;;;;;;;;;;;6092613;29;20044;-73
2021/04/06 01:46:15;;;;;;;7.07;3.45;;;;;;;;;;6089252;29;20394;-74
2021/04/06 01:49:17;;;;;;;5.65;2.92;;;;;;;;;;6089954;29;20044;-72
2021/04/06 01:52:19;;;;;;;9.27;3.17;;;;;;;;;;6087294;29;20045;-72
2021/04/06 01:55:31;;;;;;;6.97;3.20;;;;;;;;;;6087478;29;20052;-73
2021/04/06 01:58:33;;;;;;;5.55;3.05;;;;;;;;;;6087242;29;20056;-74
2021/04/06 02:01:35;;;;;;;6.82;3.40;;;;;;;;;;6088211;29;20044;-72
2021/04/06 02:04:40;;;;;;;4.20;3.20;;;;;;;;;;6088300;29;20063;-73
2021/04/06 02:07:43;;;;;;;7.18;3.20;;;;;;;;;;6098303;29;20143;-73
2021/04/06 02:10:45;;;;;;;5.90;2.80;;;;;;;;;;6091898;29;20052;-73
2021/04/06 02:13:46;;;;;;;6.30;3.22;;;;;;;;;;6091308;29;20056;-72
2021/04/06 02:16:50;;;;;;;5.55;2.88;;;;;;;;;;6093008;29;20139;-68
2021/04/06 02:19:51;;;;;;;4.88;2.90;;;;;;;;;;6091625;29;20091;-72
2021/04/06 02:22:58;;;;;;;7.82;3.63;;;;;;;;;;6090280;29;20576;-73
2021/04/06 02:26:00;;;;;;;10.95;3.60;;;;;;;;;;6089445;29;20487;-72
2021/04/06 02:29:01;;;;;;;7.40;3.17;;;;;;;;;;6098312;29;20060;-74
2021/04/06 02:32:07;;;;;;;6.13;3.80;;;;;;;;;;6099075;29;20071;-71
2021/04/06 02:35:10;;;;;;;5.07;3.10;;;;;;;;;;6096715;29;20135;-72
2021/04/06 02:38:11;;;;;;;5.43;3.53;;;;;;;;;;6110024;29;20070;-72
2021/04/06 02:41:14;;;;;;;9.93;3.63;;;;;;;;;;6093257;29;20158;-72
2021/04/06 02:44:17;;;;;;;8.30;3.50;;;;;;;;;;6092987;29;20075;-75
2021/04/06 02:47:18;;;;;;;7.68;3.40;;;;;;;;;;6097729;29;20055;-72
2021/04/06 02:50:21;;;;;;;7.53;3.50;;;;;;;;;;6088668;29;20091;-73
2021/04/06 02:53:22;;;;;;;5.20;3.30;;;;;;;;;;6087595;29;20071;-73
2021/04/06 02:56:31;;;;;;;11.13;3.42;;;;;;;;;;6088774;29;20098;-73
2021/04/06 02:59:39;;;;;;;7.10;3.50;;;;;;;;;;6090098;29;20043;-73
2021/04/06 03:02:40;;;;;;;7.28;3.78;;;;;;;;;;6095649;29;20087;-73
2021/04/06 03:05:41;;;;;;;6.20;3.83;;;;;;;;;;6090047;29;20165;-73
2021/04/06 03:08:43;;;;;;;5.45;3.22;;;;;;;;;;6094471;29;20591;-73
2021/04/06 03:11:46;;;;;;;6.93;3.70;;;;;;;;;;6088724;29;20076;-73
2021/04/06 03:14:49;;;;;;;10.52;4.03;;;;;;;;;;6094029;29;20082;-73
2021/04/06 03:17:52;;;;;;;8.75;3.65;;;;;;;;;;6094316;29;20579;-73
2021/04/06 03:21:00;;;;;;;8.65;3.30;;;;;;;;;;6092515;29;20055;-74
2021/04/06 03:24:02;;;;;;;8.90;3.50;;;;;;;;;;6086935;29;20498;-74
2021/04/06 03:27:05;;;;;;;6.85;3.40;;;;;;;;;;6088364;29;20088;-73
2021/04/06 03:30:08;;;;;;;7.65;3.50;;;;;;;;;;6095244;29;20604;-73
2021/04/06 03:33:10;;;;;;;4.68;3.38;;;;;;;;;;6092483;29;20044;-73
2021/04/06 03:36:22;;;;;;;9.15;4.05;;;;;;;;;;6088404;29;20714;-73
2021/04/06 03:39:23;;;;;;;5.70;3.40;;;;;;;;;;6087216;29;20462;-73
2021/04/06 03:42:26;;;;;;;7.32;3.67;;;;;;;;;;6092239;29;20468;-73
2021/04/06 03:45:27;;;;;;;5.05;3.28;;;;;;;;;;6095042;29;20082;-73
2021/04/06 03:48:30;;;;;;;3.80;3.40;;;;;;;;;;6095115;29;20156;-73
2021/04/06 03:51:31;;;;;;;6.72;3.50;;;;;;;;;;6097338;29;20109;-73
2021/04/06 03:54:39;;;;;;;10.25;3.70;;;;;;;;;;6089258;29;20127;-73
2021/04/06 03:57:47;;;;;;;7.05;3.78;;;;;;;;;;6089980;29;20057;-73
2021/04/06 04:00:48;;;;;;;6.97;3.75;;;;;;;;;;6093263;29;20059;-73
2021/04/06 04:03:52;;;;;;;7.63;3.67;;;;;;;;;;6090804;29;20467;-72
2021/04/06 04:07:01;;;;;;;6.32;3.90;;;;;;;;;;6093656;29;20455;-73
2021/04/06 04:10:05;;;;;;;8.57;3.92;;;;;;;;;;6094654;29;20083;-73
2021/04/06 04:13:07;;;;;;;6.47;3.42;;;;;;;;;;6088223;29;20197;-73
2021/04/06 04:16:08;;;;;;;8.43;4.47;;;;;;;;;;6098572;29;20642;-73
2021/04/06 04:19:09;;;;;;;7.90;4.18;;;;;;;;;;6094873;29;20044;-72
2021/04/06 04:22:10;;;;;;;6.65;3.67;;;;;;;;;;6089242;29;20166;-73
2021/04/06 04:25:12;;;;;;;5.78;4.00;;;;;;;;;;6089966;29;20135;-73
2021/04/06 04:28:14;;;;;;;7.85;3.90;;;;;;;;;;6098299;29;20048;-73
2021/04/06 04:31:16;;;;;;;8.88;3.90;;;;;;;;;;6094468;29;20654;-73
2021/04/06 04:34:17;;;;;;;6.35;3.70;;;;;;;;;;6098309;29;20066;-73
2021/04/06 04:37:18;;;;;;;8.30;4.07;;;;;;;;;;6094685;29;20510;-73
2021/04/06 04:40:20;;;;;;;8.88;4.40;;;;;;;;;;6091639;29;20052;-76
2021/04/06 04:43:22;;;;;;;11.57;4.10;;;;;;;;;;6094719;29;20503;-73
2021/04/06 04:46:23;;;;;;;10.45;4.25;;;;;;;;;;6089835;29;20159;-74
2021/04/06 04:49:24;;;;;;;12.80;4.28;;;;;;;;;;6093334;29;20087;-74
2021/04/06 04:52:25;;;;;;;13.50;4.22;;;;;;;;;;6087626;29;20052;-74
2021/04/06 04:55:26;;;;;;;7.68;4.13;;;;;;;;;;6092858;29;20528;-74
2021/04/06 04:58:28;;;;;;;10.70;4.00;;;;;;;;;;6092340;29;20583;-74
2021/04/06 05:01:29;;;;;;;9.60;4.03;;;;;;;;;;6091168;29;20105;-74
2021/04/06 05:04:30;;;;;;;9.00;3.72;;;;;;;;;;6093877;29;20096;-74
2021/04/06 05:07:31;;;;;;;9.70;3.70;;;;;;;;;;6089236;29;20060;-74
2021/04/06 05:10:32;;;;;;;10.05;3.90;;;;;;;;;;6090593;29;20131;-74
2021/04/06 05:13:34;;;;;;;9.70;3.67;;;;;;;;;;6091655;29;20072;-74
2021/04/06 05:16:35;;;;;;;9.05;4.10;;;;;;;;;;6094067;29;20423;-74
2021/04/06 05:19:37;;;;;;;9.40;3.55;;;;;;;;;;6087564;29;20048;-74
2021/04/06 05:22:38;;;;;;;11.07;4.38;;;;;;;;;;6096811;29;20055;-74
2021/04/06 05:25:40;;;;;;;11.07;3.90;;;;;;;;;;6091147;29;20131;-71
2021/04/06 05:28:42;;;;;;;8.07;4.10;;;;;;;;;;6094021;29;20055;-71
2021/04/06 05:31:43;;;;;;;8.65;4.22;;;;;;;;;;6089574;29;20565;-73
2021/04/06 05:34:44;;;;;;;10.50;3.67;;;;;;;;;;6101914;29;20036;-74
2021/04/06 05:37:45;;;;;;;10.98;3.78;;;;;;;;;;6089233;29;20121;-72
2021/04/06 05:40:46;;;;;;;8.93;4.10;;;;;;;;;;6095825;29;20194;-72
2021/04/06 05:43:51;;;;;;;7.55;3.40;;;;;;;;;;6084081;29;20150;-75
2021/04/06 05:46:52;;;;;;;;;;;;;;;;;;6088178;29;20091;-74
2021/04/06 05:49:53;;;;;;;7.95;2.85;;;;;;;;;;6091685;29;19963;-75
2021/04/06 05:52:54;;;;;;;9.20;2.90;;;;;;;;;;6089764;29;20069;-73
2021/04/06 05:55:58;;;;;;;7.43;2.53;;;;;;;;;;6098722;29;20555;-75
2021/04/06 05:59:00;;;;;;;8.52;2.58;;;;;;;;;;6090934;29;20048;-74
2021/04/06 06:02:02;;;;;;;4.32;2.20;;;;;;;;;;6071339;29;20079;-74
2021/04/06 06:05:03;;;;;;;4.25;1.90;;;;;;;;;;6071086;29;20746;-73
2021/04/06 06:08:09;;;;;;;3.85;1.45;;;;;;;;;;6089125;29;20122;-73
2021/04/06 06:11:11;;;;;;;3.72;1.23;;;;;;;;;;6088829;29;20131;-77
2021/04/06 06:14:29;;;;;;;5.38;1.05;;;;;;;;;;6098063;29;20064;-72
2021/04/06 06:17:31;;;;;;;6.35;1.10;;;;;;;;;;6093910;29;20052;-72
2021/04/06 06:20:32;;;;;;;18.90;1.98;;;;;;;;;;6096919;29;20080;-74
2021/04/06 06:23:38;;;;;;;7.15;1.30;;;;;;;;;;6086887;29;20084;-73
2021/04/06 06:26:39;;;;;;;8.70;2.25;;;;;;;;;;6088627;29;20135;-73
2021/04/06 06:29:41;;;;;;;15.75;0.70;;;;;;;;;;6084990;29;20165;-73
2021/04/06 06:32:42;;;;;;;4.88;0.52;;;;;;;;;;6090598;29;20067;-73
2021/04/06 06:35:45;;;;;;;15.05;1.52;;;;;;;;;;6091229;29;20146;-71
2021/04/06 06:38:46;;;;;;;7.63;1.25;;;;;;;;;;6093224;29;20079;-74
2021/04/06 06:41:57;;;;;;;10.55;1.58;;;;;;;;;;6090207;29;20144;-75
2021/04/06 06:44:59;;;;;;;42.45;3.15;;;;;;;;;;6096624;29;20131;-73
2021/04/06 06:48:00;;;;;;;19.48;1.67;;;;;;;;;;6087671;29;20613;-74
2021/04/06 06:51:03;;;;;;;12.15;0.77;;;;;;;;;;6090863;29;20158;-76
2021/04/06 06:54:05;;;;;;;12.80;1.15;;;;;;;;;;6083451;29;20095;-76
2021/04/06 06:57:11;;;;;;;34.60;1.88;;;;;;;;;;6091286;29;20920;-76
2021/04/06 07:00:15;;;;;;;96.13;6.82;;;;;;;;;;6093224;29;20087;-76
2021/04/06 07:03:17;;;;;;;46.70;2.08;;;;;;;;;;6088084;29;20079;-75
2021/04/06 07:06:21;;;;;;;30.15;2.33;;;;;;;;;;6067758;29;20128;-76
2021/04/06 07:09:24;;;;;;;17.88;1.27;;;;;;;;;;6092659;29;20072;-75
2021/04/06 07:12:25;;;;;;;33.08;2.30;;;;;;;;;;6079623;29;20056;-74
2021/04/06 07:15:27;;;;;;;22.63;1.58;;;;;;;;;;6093931;29;20079;-74
2021/04/06 07:18:28;;;;;;;15.85;1.65;;;;;;;;;;6086812;29;20060;-75
2021/04/06 07:21:29;;;;;;;10.90;1.38;;;;;;;;;;6087904;29;21276;-73
2021/04/06 07:24:33;;;;;;;38.20;2.95;;;;;;;;;;6090588;29;20071;-74
2021/04/06 07:27:35;;;;;;;5.55;0.60;;;;;;;;;;6082681;29;20064;-73
2021/04/06 07:30:38;;;;;;;7.82;0.80;;;;;;;;;;6070572;29;20137;-74
2021/04/06 07:33:39;;;;;;;8.93;0.55;;;;;;;;;;6072112;29;20097;-73
2021/04/06 07:36:41;;;;;;;6.38;0.70;;;;;;;;;;6074224;29;20053;-76
2021/04/06 07:39:42;;;;;;;4.82;0.60;;;;;;;;;;6085449;29;20075;-76
2021/04/06 07:42:46;;;;;;;7.82;1.00;;;;;;;;;;6091449;29;20075;-75
2021/04/06 07:45:48;;;;;;;4.43;0.73;;;;;;;;;;6086968;29;20052;-76
2021/04/06 07:48:50;;;;;;;6.32;1.10;;;;;;;;;;6087923;29;20076;-73
2021/04/06 07:51:53;;;;;;;27.65;1.75;;;;;;;;;;6091942;29;20040;-75
2021/04/06 07:54:54;;;;;;;10.80;0.70;;;;;;;;;;6093090;29;20503;-73
2021/04/06 07:57:55;;;;;;;7.20;0.82;;;;;;;;;;6088654;29;20491;-73
2021/04/06 08:01:06;;;;;;;20.10;1.00;;;;;;;;;;6090418;29;20052;-75
2021/04/06 08:04:07;;;;;;;19.85;1.73;;;;;;;;;;6074565;29;20048;-76
2021/04/06 08:07:23;;;;;;;22.83;1.73;;;;;;;;;;6090608;29;20203;-77
2021/04/06 08:10:35;;;;;;;3.63;0.85;;;;;;;;;;6092834;29;20076;-76
2021/04/06 08:13:36;;;;;;;3.20;0.80;;;;;;;;;;6088567;29;20193;-76
2021/04/06 08:16:38;;;;;;;12.50;1.35;;;;;;;;;;6087022;29;20489;-75
2021/04/06 08:19:48;;;;;;;6.63;0.77;;;;;;;;;;6093512;29;20060;-75
2021/04/06 08:22:52;;;;;;;7.63;1.00;;;;;;;;;;6090223;29;20393;-75
2021/04/06 08:25:54;;;;;;;5.85;0.70;;;;;;;;;;6092156;29;20076;-75
2021/04/06 08:28:55;;;;;;;18.33;0.90;;;;;;;;;;6094952;29;20104;-75
2021/04/06 08:32:13;;;;;;;31.75;2.67;;;;;;;;;;6087229;29;20131;-75
2021/04/06 08:35:14;;;;;;;9.77;1.02;;;;;;;;;;6085771;29;20044;-75
2021/04/06 08:38:45;;;;;;;4.40;0.40;;;;;;;;;;6088258;29;20079;-75
2021/04/06 08:41:46;;;;;;;30.35;1.65;;;;;;;;;;6092071;29;20072;-75
2021/04/06 08:44:57;;;;;;;9.57;0.88;;;;;;;;;;6091098;29;20072;-73
2021/04/06 08:47:59;;;;;;;6.55;0.85;;;;;;;;;;6086831;29;20437;-76
2021/04/06 08:51:00;;;;;;;20.60;2.03;;;;;;;;;;6090195;29;20612;-77
2021/04/06 08:54:02;;;;;;;26.13;1.17;;;;;;;;;;6091447;29;20063;-77
2021/04/06 08:57:06;;;;;;;6.35;0.68;;;;;;;;;;6093410;29;20076;-77
2021/04/06 09:00:09;;;;;;;6.22;0.80;;;;;;;;;;6090742;29;20079;-77
2021/04/06 09:03:11;;;;;;;10.90;1.00;;;;;;;;;;6097538;29;20060;-76
2021/04/06 09:06:13;;;;;;;4.80;0.70;;;;;;;;;;6094530;29;20655;-76
2021/04/06 09:09:17;;;;;;;10.68;0.80;;;;;;;;;;6095438;29;20131;-77
2021/04/06 09:12:18;;;;;;;31.30;2.95;;;;;;;;;;6089957;29;20079;-75
2021/04/06 09:15:22;;;;;;;7.57;0.80;;;;;;;;;;6092634;29;20090;-77
2021/04/06 09:18:25;;;;;;;8.25;0.95;;;;;;;;;;6087790;29;20475;-75
2021/04/06 09:21:29;;;;;;;6.55;0.93;;;;;;;;;;6095086;29;20102;-77
2021/04/06 09:24:30;;;;;;;;;;;;;;;;;;6097283;29;20135;-76
2021/04/06 09:27:31;;;;;;;17.80;1.40;;;;;;;;;;6097400;29;19923;-76
2021/04/06 09:30:36;;;;;;;6.82;0.93;;;;;;;;;;6098187;29;20857;-77
2021/04/06 09:33:39;;;;;;;8.15;0.73;;;;;;;;;;6093866;29;20056;-77
2021/04/06 09:36:42;;;;;;;22.45;1.35;;;;;;;;;;6092061;29;20470;-77
2021/04/06 09:39:45;;;;;;;4.78;0.63;;;;;;;;;;6085064;29;20127;-75
2021/04/06 09:42:46;;;;;;;6.78;1.00;;;;;;;;;;6095580;29;20056;-76
2021/04/06 09:45:48;;;;;;;3.15;0.85;;;;;;;;;;6092408;29;20083;-76
2021/04/06 09:48:54;;;;;;;3.97;0.70;;;;;;;;;;6090222;29;20206;-76
2021/04/06 09:51:55;;;;;;;43.05;3.25;;;;;;;;;;6093659;29;20078;-77
2021/04/06 09:54:58;;;;;;;11.20;1.60;;;;;;;;;;6093835;29;20527;-76
2021/04/06 09:58:02;;;;;;;14.97;1.30;;;;;;;;;;6086251;29;20579;-77
2021/04/06 10:01:17;;;;;;;8.50;1.10;;;;;;;;;;6089131;29;20060;-76
2021/04/06 10:04:32;;;;;;;8.23;1.30;;;;;;;;;;6091638;29;20131;-76
2021/04/06 10:07:33;;;;;;;3.92;0.70;;;;;;;;;;6092022;29;20072;-75
2021/04/06 10:10:35;;;;;;;8.52;0.77;;;;;;;;;;6091426;29;20493;-76
2021/04/06 10:13:39;;;;;;;9.82;0.80;;;;;;;;;;6087311;29;20086;-75
2021/04/06 10:16:42;;;;;;;25.23;1.80;;;;;;;;;;6083534;29;20416;-75
2021/04/06 10:19:54;;;;;;;33.08;3.05;;;;;;;;;;6082281;29;20063;-74
2021/04/06 10:22:57;;;;;;;3.60;0.60;;;;;;;;;;6089962;29;20076;-77
2021/04/06 10:25:59;;;;;;;3.83;0.77;;;;;;;;;;6081578;29;20056;-78
2021/04/06 10:29:02;;;;;;;7.78;0.90;;;;;;;;;;6090284;29;20132;-76
2021/04/06 10:32:04;;;;;;;7.88;0.50;;;;;;;;;;6092443;29;20056;-77
2021/04/06 10:35:10;;;;;;;13.57;1.15;;;;;;;;;;6088966;29;20083;-77
2021/04/06 10:38:17;;;;;;;2.50;0.50;;;;;;;;;;6092735;29;20143;-78
2021/04/06 10:41:24;;;;;;;5.93;0.75;;;;;;;;;;6089347;29;20509;-78
2021/04/06 10:44:25;;;;;;;4.43;0.65;;;;;;;;;;6095337;29;20570;-75
2021/04/06 10:47:28;;;;;;;8.05;0.93;;;;;;;;;;6094318;29;20095;-77
2021/04/06 10:50:31;;;;;;;2.35;0.60;;;;;;;;;;6093320;29;20407;-77
2021/04/06 10:53:37;;;;;;;4.22;0.93;;;;;;;;;;6083077;29;20072;-79
2021/04/06 10:56:42;;;;;;;13.70;1.40;;;;;;;;;;6092023;29;20060;-78
2021/04/06 10:59:44;;;;;;;5.50;0.60;;;;;;;;;;6089753;29;20100;-76
2021/04/06 11:02:45;;;;;;;5.00;0.90;;;;;;;;;;6090002;29;20060;-79
2021/04/06 11:05:48;;;;;;;9.48;4.07;;;;;;;;;;6088888;29;20049;-77
2021/04/06 11:08:51;;;;;;;4.07;1.10;;;;;;;;;;6094937;29;20052;-77
2021/04/06 11:11:53;;;;;;;48.57;3.07;;;;;;;;;;6093769;29;20565;-76
2021/04/06 11:14:54;;;;;;;15.85;1.25;;;;;;;;;;6091045;29;20990;-75
2021/04/06 11:17:55;;;;;;;4.30;0.60;;;;;;;;;;6090875;29;20199;-76
2021/04/06 11:20:57;;;;;;;3.22;0.80;;;;;;;;;;6093927;29;20142;-75
2021/04/06 11:23:59;;;;;;;9.32;1.77;;;;;;;;;;6088109;29;20063;-77
2021/04/06 11:27:02;;;;;;;8.40;1.23;;;;;;;;;;6095648;29;20448;-77
2021/04/06 11:30:04;;;;;;;6.03;0.60;;;;;;;;;;6094583;29;20067;-77
2021/04/06 11:33:06;;;;;;;24.67;2.38;;;;;;;;;;6088094;29;20121;-75
2021/04/06 11:36:08;;;;;;;1.58;0.68;;;;;;;;;;6099389;29;20095;-77
2021/04/06 11:39:11;;;;;;;2.30;0.77;;;;;;;;;;6092651;29;20414;-77
2021/04/06 11:42:15;;;;;;;6.38;0.75;;;;;;;;;;6088800;29;20041;-74
2021/04/06 11:45:16;;;;;;;5.90;1.10;;;;;;;;;;6091828;29;20514;-74
2021/04/06 11:48:17;;;;;;;7.75;0.77;;;;;;;;;;6093163;29;20076;-77
2021/04/06 11:51:20;;;;;;;6.32;0.80;;;;;;;;;;6090107;29;20059;-76
2021/04/06 11:54:22;;;;;;;5.43;1.58;;;;;;;;;;6091097;29;20157;-78
2021/04/06 11:57:23;;;;;;;5.20;1.00;;;;;;;;;;6092861;29;22674;-79
2021/04/06 12:00:24;;;;;;;13.60;1.38;;;;;;;;;;6096194;29;20052;-77
2021/04/06 12:03:26;;;;;;;10.32;1.20;;;;;;;;;;6093151;29;20056;-79
2021/04/06 12:06:28;;;;;;;4.22;0.70;;;;;;;;;;6095224;29;20471;-82
2021/04/06 12:09:29;;;;;;;11.65;1.98;;;;;;;;;;6090420;29;20190;-76
2021/04/06 12:12:30;;;;;;;14.32;1.25;;;;;;;;;;6091962;29;20052;-77
2021/04/06 12:15:32;;;;;;;4.60;0.65;;;;;;;;;;6093780;29;20082;-77
2021/04/06 12:18:33;;;;;;;19.95;1.85;;;;;;;;;;6091568;29;20052;-77
2021/04/06 12:21:35;;;;;;;26.35;2.33;;;;;;;;;;6088536;29;20048;-76
2021/04/06 12:24:36;;;;;;;14.52;1.13;;;;;;;;;;6094865;29;20060;-77
2021/04/06 12:27:37;;;;;;;6.43;1.45;;;;;;;;;;6094822;29;20136;-71
2021/04/06 12:30:38;;;;;;;5.03;1.00;;;;;;;;;;6092396;29;20056;-71
2021/04/06 12:33:40;;;;;;;9.73;1.13;;;;;;;;;;6096110;29;20072;-71
2021/04/06 12:36:42;;;;;;;13.90;1.83;;;;;;;;;;6090412;29;20052;-76
2021/04/06 12:39:43;;;;;;;15.13;1.30;;;;;;;;;;6091367;29;20093;-76
2021/04/06 12:42:45;;;;;;;9.60;1.25;;;;;;;;;;6100549;29;20063;-76
2021/04/06 12:45:46;;;;;;;11.90;1.10;;;;;;;;;;6085205;29;20108;-77
2021/04/06 12:48:47;;;;;;;8.32;1.23;;;;;;;;;;6091257;29;20063;-75
2021/04/06 12:51:49;;;;;;;17.05;1.02;;;;;;;;;;6092356;29;20480;-76
2021/04/06 12:54:50;;;;;;;8.25;0.70;;;;;;;;;;6095914;29;20044;-76
2021/04/06 12:57:51;;;;;;;19.75;2.58;;;;;;;;;;6092481;29;20048;-75
2021/04/06 13:00:53;;;;;;;61.50;4.50;;;;;;;;;;6095862;29;20056;-76
2021/04/06 13:03:54;;;;;;;93.90;8.40;;;;;;;;;;6091948;29;20102;-77
2021/04/06 13:06:56;;;;;;;7.93;1.23;;;;;;;;;;6100782;29;20141;-75
2021/04/06 13:09:57;;;;;;;19.17;1.55;;;;;;;;;;6093096;29;20132;-75
2021/04/06 13:12:58;;;;;;;14.32;1.73;;;;;;;;;;6094455;29;20421;-76
2021/04/06 13:15:59;;;;;;;6.10;0.77;;;;;;;;;;6094014;29;20048;-76
2021/04/06 13:19:01;;;;;;;30.35;2.00;;;;;;;;;;6088201;29;20131;-76
2021/04/06 13:22:03;;;;;;;18.48;1.48;;;;;;;;;;6097735;29;20056;-76
2021/04/06 13:25:05;;;;;;;11.43;0.68;;;;;;;;;;6092171;29;20061;-77
2021/04/06 13:28:06;;;;;;;11.50;1.50;;;;;;;;;;6093399;29;20123;-77
2021/04/06 13:31:08;;;;;;;5.95;1.00;;;;;;;;;;6093962;29;20142;-76
2021/04/06 13:34:10;;;;;;;5.10;1.40;;;;;;;;;;6090622;29;20499;-75
2021/04/06 13:37:12;;;;;;;6.03;1.20;;;;;;;;;;6096039;29;20047;-76
2021/04/06 13:40:15;;;;;;;11.00;1.23;;;;;;;;;;6095756;29;20467;-76
2021/04/06 13:43:16;;;;;;;12.02;1.77;;;;;;;;;;6095169;29;20135;-76
2021/04/06 13:46:18;;;;;;;11.73;1.13;;;;;;;;;;6091999;29;20108;-76
2021/04/06 13:49:20;;;;;;;8.65;0.75;;;;;;;;;;6086249;29;20068;-74
2021/04/06 13:52:22;;;;;;;2.20;0.50;;;;;;;;;;6088108;29;20068;-75
2021/04/06 13:55:24;;;;;;;9.02;1.63;;;;;;;;;;6093878;29;21175;-76
2021/04/06 13:58:25;;;;;;;10.70;2.00;;;;;;;;;;6094505;29;20074;-76
2021/04/06 14:01:27;;;;;;;15.50;2.45;;;;;;;;;;6092595;29;20136;-75
2021/04/06 14:04:28;;;;;;;44.40;4.18;;;;;;;;;;6090996;29;20098;-75
2021/04/06 14:07:30;;;;;;;31.70;3.92;;;;;;;;;;6089912;29;20110;-75
2021/04/06 14:10:32;;;;;;;9.38;2.38;;;;;;;;;;6088369;29;20173;-73
2021/04/06 14:13:33;;;;;;;4.68;2.38;;;;;;;;;;6090373;29;20159;-74
2021/04/06 14:16:34;;;;;;;17.75;2.78;;;;;;;;;;6083817;29;20113;-74
2021/04/06 14:19:36;;;;;;;4.88;1.90;;;;;;;;;;6087260;29;20143;-75
2021/04/06 14:22:39;;;;;;;5.32;1.33;;;;;;;;;;6090575;29;20546;-75
2021/04/06 14:25:40;;;;;;;16.25;1.73;;;;;;;;;;6089165;29;20131;-76
2021/04/06 14:28:41;;;;;;;3.80;0.90;;;;;;;;;;6096020;29;20136;-78
2021/04/06 14:31:42;;;;;;;3.38;0.68;;;;;;;;;;6093940;29;20593;-80
2021/04/06 14:34:44;;;;;;;5.65;1.08;;;;;;;;;;6095278;29;20495;-81
2021/04/06 14:37:46;;;;;;;2.00;0.52;;;;;;;;;;6093874;29;20048;-76
2021/04/06 14:40:47;;;;;;;7.30;0.88;;;;;;;;;;6099172;29;20574;-77
2021/04/06 14:43:48;;;;;;;3.22;0.80;;;;;;;;;;6093099;29;20084;-77
2021/04/06 14:46:49;;;;;;;7.22;0.70;;;;;;;;;;6096809;29;20071;-77
2021/04/06 14:49:50;;;;;;;5.57;0.60;;;;;;;;;;6091450;29;20077;-78
2021/04/06 14:52:52;;;;;;;1.45;0.75;;;;;;;;;;6093162;29;20096;-77
2021/04/06 14:55:54;;;;;;;4.63;0.80;;;;;;;;;;6095340;29;20059;-78
2021/04/06 14:58:56;;;;;;;4.65;0.73;;;;;;;;;;6095631;29;20112;-81
2021/04/06 15:01:57;;;;;;;3.28;0.90;;;;;;;;;;6092814;29;20518;-80
2021/04/06 15:04:59;;;;;;;2.80;0.93;;;;;;;;;;6091311;29;20072;-77
2021/04/06 15:08:01;;;;;;;1.70;0.95;;;;;;;;;;6098634;29;20059;-76
2021/04/06 15:11:03;;;;;;;4.35;0.75;;;;;;;;;;6099364;29;20449;-75
2021/04/06 15:14:05;;;;;;;1.17;0.50;;;;;;;;;;6090249;29;20487;-76
2021/04/06 15:17:07;;;;;;;3.42;0.80;;;;;;;;;;6093163;29;20067;-77
2021/04/06 15:20:12;;;;;;;4.10;0.90;;;;;;;;;;6088764;29;20048;-76
2021/04/06 15:23:17;;;;;;;5.85;1.45;;;;;;;;;;6086789;29;20044;-76
2021/04/06 15:26:21;;;;;;;3.40;0.90;;;;;;;;;;6089744;29;20436;-76
2021/04/06 15:29:26;;;;;;;3.40;1.00;;;;;;;;;;6097007;29;20059;-76
2021/04/06 15:32:34;;;;;;;8.15;1.70;;;;;;;;;;6094741;29;20048;-78
2021/04/06 15:35:42;;;;;;;5.28;1.20;;;;;;;;;;6091564;29;20074;-77
2021/04/06 15:38:45;;;;;;;3.70;1.10;;;;;;;;;;6090738;29;21271;-78
2021/04/06 15:41:46;;;;;;;4.82;1.27;;;;;;;;;;6082882;29;20845;-78
2021/04/06 15:44:47;;;;;;;2.78;0.93;;;;;;;;;;6107918;29;20067;-79
2021/04/06 15:47:48;;;;;;;3.22;1.00;;;;;;;;;;6088370;29;20056;-78
2021/04/06 15:50:51;;;;;;;2.72;1.30;;;;;;;;;;6088907;29;20123;-78
2021/04/06 15:53:53;;;;;;;5.53;1.40;;;;;;;;;;6086963;29;20055;-78
2021/04/06 15:56:56;;;;;;;4.78;1.30;;;;;;;;;;6095999;29;20111;-77
2021/04/06 15:59:58;;;;;;;3.58;1.30;;;;;;;;;;6099296;29;20323;-78
2021/04/06 16:03:00;;;;;;;3.67;1.10;;;;;;;;;;6102858;29;20440;-77
2021/04/06 16:06:03;;;;;;;5.28;1.30;;;;;;;;;;6100995;29;20139;-78
2021/04/06 16:09:05;;;;;;;4.90;1.10;;;;;;;;;;6099600;29;20097;-78
2021/04/06 16:12:08;;;;;;;3.83;1.13;;;;;;;;;;6091890;29;20527;-78
2021/04/06 16:15:10;;;;;;;5.38;1.63;;;;;;;;;;6095819;29;20052;-78
2021/04/06 16:18:12;;;;;;;3.60;1.30;;;;;;;;;;6098995;29;20140;-79
2021/04/06 16:21:13;;;;;;;4.03;1.42;;;;;;;;;;6096099;29;20041;-76
2021/04/06 16:24:15;;;;;;;4.10;1.15;;;;;;;;;;6098584;29;20436;-79
2021/04/06 16:27:17;;;;;;;3.55;1.35;;;;;;;;;;6101798;29;20079;-78
2021/04/06 16:30:19;;;;;;;4.88;1.85;;;;;;;;;;6095579;29;20452;-78
2021/04/06 16:33:23;;;;;;;3.38;1.38;;;;;;;;;;6092859;29;20056;-80
2021/04/06 16:36:24;;;;;;;3.72;1.80;;;;;;;;;;6095992;29;20189;-81
2021/04/06 16:39:26;;;;;;;3.80;1.42;;;;;;;;;;6112089;29;20052;-77
2021/04/06 16:42:27;;;;;;;4.05;1.50;;;;;;;;;;6109655;29;20841;-78
2021/04/06 16:45:29;;;;;;;4.18;1.80;;;;;;;;;;6099924;29;20116;-79
2021/04/06 16:48:31;;;;;;;4.28;1.88;;;;;;;;;;6100901;29;20059;-77
2021/04/06 16:51:32;;;;;;;3.05;1.80;;;;;;;;;;6099788;29;20068;-77
2021/04/06 16:54:35;;;;;;;5.88;1.90;;;;;;;;;;6093039;29;20507;-77
2021/04/06 16:57:36;;;;;;;2.67;1.65;;;;;;;;;;6102540;29;20436;-78
2021/04/06 17:00:37;;;;;;;4.63;1.80;;;;;;;;;;6096818;29;20064;-79
2021/04/06 17:03:39;;;;;;;4.88;1.70;;;;;;;;;;6100455;29;20093;-77
2021/04/06 17:06:40;;;;;;;9.15;1.80;;;;;;;;;;6103618;29;20047;-77
2021/04/06 17:09:42;;;;;;;3.78;1.77;;;;;;;;;;6092991;29;20679;-78
2021/04/06 17:12:44;;;;;;;6.05;1.80;;;;;;;;;;6095941;29;20139;-78
2021/04/06 17:15:46;;;;;;;4.38;1.70;;;;;;;;;;6096247;29;20092;-77
2021/04/06 17:18:47;;;;;;;5.55;2.50;;;;;;;;;;6095280;29;20444;-77
2021/04/06 17:21:48;;;;;;;3.97;1.30;;;;;;;;;;6086232;29;20052;-80
2021/04/06 17:24:50;;;;;;;3.80;1.60;;;;;;;;;;6096030;29;20159;-77
2021/04/06 17:27:51;;;;;;;2.97;1.27;;;;;;;;;;6094529;29;20220;-77
2021/04/06 17:30:55;;;;;;;2.40;1.17;;;;;;;;;;6107318;29;20079;-77
2021/04/06 17:33:56;;;;;;;5.60;1.23;;;;;;;;;;6108197;29;20051;-78
2021/04/06 17:36:57;;;;;;;5.28;1.40;;;;;;;;;;6097184;29;20075;-80
2021/04/06 17:39:59;;;;;;;6.18;1.48;;;;;;;;;;6094354;29;20225;-77
2021/04/06 17:43:02;;;;;;;8.15;1.27;;;;;;;;;;6098643;29;20159;-78
2021/04/06 17:46:04;;;;;;;3.13;1.00;;;;;;;;;;6097111;29;20127;-77
2021/04/06 17:49:05;;;;;;;2.25;1.00;;;;;;;;;;6101421;29;20047;-77
2021/04/06 17:52:06;;;;;;;4.85;1.17;;;;;;;;;;6103151;29;20510;-79
2021/04/06 17:55:11;;;;;;;3.20;0.98;;;;;;;;;;6095511;29;20131;-77
2021/04/06 17:58:13;;;;;;;5.20;0.90;;;;;;;;;;6099519;29;20044;-77
2021/04/06 18:01:14;;;;;;;4.38;1.13;;;;;;;;;;6099997;29;20079;-76
2021/04/06 18:04:15;;;;;;;4.45;0.98;;;;;;;;;;6097948;29;20076;-76
2021/04/06 18:07:17;;;;;;;3.47;1.10;;;;;;;;;;6093491;29;20496;-75
2021/04/06 18:10:20;;;;;;;2.40;1.20;;;;;;;;;;6099169;29;20076;-77
2021/04/06 18:13:21;;;;;;;3.28;0.90;;;;;;;;;;6095917;29;20051;-77